sensor_id;sensor_type;location;lat;lon;timestamp;temperature;humidity
6102;DHT22;3081;50.584;7.032;2023-08-20T00:01:05;21.00;99.90
6102;DHT22;3081;50.584;7.032;2023-08-20T00:03:32;20.90;99.90
6102;DHT22;3081;50.584;7.032;2023-08-20T00:06:00;21.00;99.90
6102;DHT22;3081;50.584;7.032;2023-08-20T00:08:28;21.00;99.90
6102;DHT22;3081;50.584;7.032;2023-08-20T00:10:54;21.00;99.90
6102;DHT22;3081;50.584;7.032;2023-08-20T00:13:23;20.80;99.90
6102;DHT22;3081;50.584;7.032;2023-08-20T00:15:50;20.80;99.90
6102;DHT22;3081;50.584;7.032;2023-08-20T00:18:17;20.70;99.90
6102;DHT22;3081;50.584;7.032;2023-08-20T00:20:45;20.60;99.90
6102;DHT22;3081;50.584;7.032;2023-08-20T00:23:13;20.60;99.90
6102;DHT22;3081;50.584;7.032;2023-08-20T00:25:40;20.60;99.90
6102;DHT22;3081;50.584;7.032;2023-08-20T00:28:07;20.60;99.90
6102;DHT22;3081;50.584;7.032;2023-08-20T00:30:36;20.60;99.90
6102;DHT22;3081;50.584;7.032;2023-08-20T00:33:03;20.60;99.90
6102;DHT22;3081;50.584;7.032;2023-08-20T00:35:30;20.60;99.90
6102;DHT22;3081;50.584;7.032;2023-08-20T00:37:57;20.50;99.90
6102;DHT22;3081;50.584;7.032;2023-08-20T00:40:24;20.50;99.90
6102;DHT22;3081;50.584;7.032;2023-08-20T00:42:50;20.50;99.90
6102;DHT22;3081;50.584;7.032;2023-08-20T00:45:17;20.50;99.90
6102;DHT22;3081;50.584;7.032;2023-08-20T00:47:47;20.50;99.90
6102;DHT22;3081;50.584;7.032;2023-08-20T00:50:14;20.50;99.90
6102;DHT22;3081;50.584;7.032;2023-08-20T00:52:42;20.50;99.90
6102;DHT22;3081;50.584;7.032;2023-08-20T00:55:10;20.50;99.90
6102;DHT22;3081;50.584;7.032;2023-08-20T00:57:39;20.50;99.90
6102;DHT22;3081;50.584;7.032;2023-08-20T01:00:07;20.50;99.90
6102;DHT22;3081;50.584;7.032;2023-08-20T01:02:36;20.60;99.90
6102;DHT22;3081;50.584;7.032;2023-08-20T01:05:06;20.50;99.90
6102;DHT22;3081;50.584;7.032;2023-08-20T01:07:40;20.60;99.90
6102;DHT22;3081;50.584;7.032;2023-08-20T01:10:15;20.50;99.90
6102;DHT22;3081;50.584;7.032;2023-08-20T01:12:46;20.50;99.90
6102;DHT22;3081;50.584;7.032;2023-08-20T01:15:13;20.50;99.90
6102;DHT22;3081;50.584;7.032;2023-08-20T01:17:40;20.50;99.90
6102;DHT22;3081;50.584;7.032;2023-08-20T01:20:10;20.50;99.90
6102;DHT22;3081;50.584;7.032;2023-08-20T01:22:58;20.50;99.90
6102;DHT22;3081;50.584;7.032;2023-08-20T01:25:38;20.50;99.90
6102;DHT22;3081;50.584;7.032;2023-08-20T01:28:20;20.50;99.90
6102;DHT22;3081;50.584;7.032;2023-08-20T01:30:48;20.40;99.90
6102;DHT22;3081;50.584;7.032;2023-08-20T01:33:16;20.40;99.90
6102;DHT22;3081;50.584;7.032;2023-08-20T01:35:43;20.40;99.90
6102;DHT22;3081;50.584;7.032;2023-08-20T01:38:10;20.40;99.90
6102;DHT22;3081;50.584;7.032;2023-08-20T01:40:37;20.40;99.90
6102;DHT22;3081;50.584;7.032;2023-08-20T01:43:04;20.40;99.90
6102;DHT22;3081;50.584;7.032;2023-08-20T01:45:32;20.30;99.90
6102;DHT22;3081;50.584;7.032;2023-08-20T01:47:59;20.30;99.90
6102;DHT22;3081;50.584;7.032;2023-08-20T01:50:26;20.30;99.90
6102;DHT22;3081;50.584;7.032;2023-08-20T01:52:53;20.20;99.90
6102;DHT22;3081;50.584;7.032;2023-08-20T01:55:20;20.20;99.90
6102;DHT22;3081;50.584;7.032;2023-08-20T01:57:47;20.20;99.90
6102;DHT22;3081;50.584;7.032;2023-08-20T02:00:14;20.30;99.90
6102;DHT22;3081;50.584;7.032;2023-08-20T02:02:43;20.20;99.90
6102;DHT22;3081;50.584;7.032;2023-08-20T02:05:10;20.20;99.90
6102;DHT22;3081;50.584;7.032;2023-08-20T02:07:37;20.20;99.90
6102;DHT22;3081;50.584;7.032;2023-08-20T02:10:05;20.10;99.90
6102;DHT22;3081;50.584;7.032;2023-08-20T02:12:32;20.10;99.90
6102;DHT22;3081;50.584;7.032;2023-08-20T02:14:59;20.10;99.90
6102;DHT22;3081;50.584;7.032;2023-08-20T02:17:26;20.10;99.90
6102;DHT22;3081;50.584;7.032;2023-08-20T02:19:54;20.10;99.90
6102;DHT22;3081;50.584;7.032;2023-08-20T02:22:21;20.10;99.90
6102;DHT22;3081;50.584;7.032;2023-08-20T02:24:48;20.10;99.90
6102;DHT22;3081;50.584;7.032;2023-08-20T02:27:15;20.10;99.90
6102;DHT22;3081;50.584;7.032;2023-08-20T02:29:41;20.10;99.90
6102;DHT22;3081;50.584;7.032;2023-08-20T02:32:08;20.10;99.90
6102;DHT22;3081;50.584;7.032;2023-08-20T02:34:35;20.10;99.90
6102;DHT22;3081;50.584;7.032;2023-08-20T02:37:04;20.10;99.90
6102;DHT22;3081;50.584;7.032;2023-08-20T02:39:31;20.00;99.90
6102;DHT22;3081;50.584;7.032;2023-08-20T02:41:58;19.90;99.90
6102;DHT22;3081;50.584;7.032;2023-08-20T02:44:24;19.90;99.90
6102;DHT22;3081;50.584;7.032;2023-08-20T02:46:51;19.90;99.90
6102;DHT22;3081;50.584;7.032;2023-08-20T02:49:18;19.80;99.90
6102;DHT22;3081;50.584;7.032;2023-08-20T02:51:45;19.80;99.90
6102;DHT22;3081;50.584;7.032;2023-08-20T02:54:13;19.80;99.90
6102;DHT22;3081;50.584;7.032;2023-08-20T02:56:40;19.80;99.90
6102;DHT22;3081;50.584;7.032;2023-08-20T02:59:07;19.80;99.90
6102;DHT22;3081;50.584;7.032;2023-08-20T03:01:34;19.80;99.90
6102;DHT22;3081;50.584;7.032;2023-08-20T03:04:01;19.80;99.90
6102;DHT22;3081;50.584;7.032;2023-08-20T03:06:28;19.80;99.90
6102;DHT22;3081;50.584;7.032;2023-08-20T03:08:55;19.70;99.90
6102;DHT22;3081;50.584;7.032;2023-08-20T03:11:23;19.70;99.90
6102;DHT22;3081;50.584;7.032;2023-08-20T03:13:50;19.80;99.90
6102;DHT22;3081;50.584;7.032;2023-08-20T03:16:17;19.70;99.90
6102;DHT22;3081;50.584;7.032;2023-08-20T03:18:44;19.70;99.90
6102;DHT22;3081;50.584;7.032;2023-08-20T03:21:11;19.70;99.90
6102;DHT22;3081;50.584;7.032;2023-08-20T03:23:38;19.70;99.90
6102;DHT22;3081;50.584;7.032;2023-08-20T03:26:05;19.70;99.90
6102;DHT22;3081;50.584;7.032;2023-08-20T03:28:33;19.80;99.90
6102;DHT22;3081;50.584;7.032;2023-08-20T03:31:00;19.80;99.90
6102;DHT22;3081;50.584;7.032;2023-08-20T03:33:27;19.80;99.90
6102;DHT22;3081;50.584;7.032;2023-08-20T03:35:54;19.80;99.90
6102;DHT22;3081;50.584;7.032;2023-08-20T03:38:21;19.80;99.90
6102;DHT22;3081;50.584;7.032;2023-08-20T03:40:49;19.80;99.90
6102;DHT22;3081;50.584;7.032;2023-08-20T03:43:16;19.80;99.90
6102;DHT22;3081;50.584;7.032;2023-08-20T03:45:45;19.80;99.90
6102;DHT22;3081;50.584;7.032;2023-08-20T03:48:15;19.80;99.90
6102;DHT22;3081;50.584;7.032;2023-08-20T03:50:42;19.80;99.90
6102;DHT22;3081;50.584;7.032;2023-08-20T03:53:09;19.90;99.90
6102;DHT22;3081;50.584;7.032;2023-08-20T03:55:36;19.80;99.90
6102;DHT22;3081;50.584;7.032;2023-08-20T03:58:03;19.80;99.90
6102;DHT22;3081;50.584;7.032;2023-08-20T04:00:30;19.80;99.90
6102;DHT22;3081;50.584;7.032;2023-08-20T04:02:58;19.80;99.90
6102;DHT22;3081;50.584;7.032;2023-08-20T04:05:25;19.80;99.90
6102;DHT22;3081;50.584;7.032;2023-08-20T04:07:52;19.70;99.90
6102;DHT22;3081;50.584;7.032;2023-08-20T04:10:19;19.70;99.90
6102;DHT22;3081;50.584;7.032;2023-08-20T04:12:46;19.60;99.90
6102;DHT22;3081;50.584;7.032;2023-08-20T04:15:13;19.60;99.90
6102;DHT22;3081;50.584;7.032;2023-08-20T04:17:40;19.70;99.90
6102;DHT22;3081;50.584;7.032;2023-08-20T04:20:09;19.70;99.90
6102;DHT22;3081;50.584;7.032;2023-08-20T04:22:36;19.80;99.90
6102;DHT22;3081;50.584;7.032;2023-08-20T04:25:04;19.80;99.90
6102;DHT22;3081;50.584;7.032;2023-08-20T04:27:31;19.80;99.90
6102;DHT22;3081;50.584;7.032;2023-08-20T04:29:58;19.90;99.90
6102;DHT22;3081;50.584;7.032;2023-08-20T04:32:25;19.90;99.90
6102;DHT22;3081;50.584;7.032;2023-08-20T04:34:52;20.00;99.90
6102;DHT22;3081;50.584;7.032;2023-08-20T04:37:21;20.00;99.90
6102;DHT22;3081;50.584;7.032;2023-08-20T04:39:48;20.10;99.90
6102;DHT22;3081;50.584;7.032;2023-08-20T04:42:15;20.10;99.90
6102;DHT22;3081;50.584;7.032;2023-08-20T04:44:42;20.10;99.90
6102;DHT22;3081;50.584;7.032;2023-08-20T04:47:11;20.10;99.90
6102;DHT22;3081;50.584;7.032;2023-08-20T04:49:38;20.10;99.90
6102;DHT22;3081;50.584;7.032;2023-08-20T04:52:05;20.10;99.90
6102;DHT22;3081;50.584;7.032;2023-08-20T04:54:33;20.20;99.90
6102;DHT22;3081;50.584;7.032;2023-08-20T04:57:00;20.20;99.90
6102;DHT22;3081;50.584;7.032;2023-08-20T04:59:27;20.30;99.90
6102;DHT22;3081;50.584;7.032;2023-08-20T05:01:54;20.30;99.90
6102;DHT22;3081;50.584;7.032;2023-08-20T05:04:21;20.40;99.90
6102;DHT22;3081;50.584;7.032;2023-08-20T05:06:48;20.40;99.90
6102;DHT22;3081;50.584;7.032;2023-08-20T05:09:16;20.50;99.90
6102;DHT22;3081;50.584;7.032;2023-08-20T05:11:44;20.40;99.90
6102;DHT22;3081;50.584;7.032;2023-08-20T05:14:11;20.40;99.90
6102;DHT22;3081;50.584;7.032;2023-08-20T05:16:38;20.30;99.90
6102;DHT22;3081;50.584;7.032;2023-08-20T05:19:04;20.40;99.90
6102;DHT22;3081;50.584;7.032;2023-08-20T05:21:31;20.40;99.90
6102;DHT22;3081;50.584;7.032;2023-08-20T05:23:58;20.50;99.90
6102;DHT22;3081;50.584;7.032;2023-08-20T05:26:25;20.60;99.90
6102;DHT22;3081;50.584;7.032;2023-08-20T05:28:53;20.70;99.90
6102;DHT22;3081;50.584;7.032;2023-08-20T05:31:20;20.70;99.90
6102;DHT22;3081;50.584;7.032;2023-08-20T05:33:47;20.80;99.90
6102;DHT22;3081;50.584;7.032;2023-08-20T05:36:14;20.90;99.90
6102;DHT22;3081;50.584;7.032;2023-08-20T05:38:41;21.00;99.90
6102;DHT22;3081;50.584;7.032;2023-08-20T05:41:08;21.10;99.90
6102;DHT22;3081;50.584;7.032;2023-08-20T05:43:35;21.20;99.90
6102;DHT22;3081;50.584;7.032;2023-08-20T05:46:04;21.30;99.90
6102;DHT22;3081;50.584;7.032;2023-08-20T05:48:31;21.40;99.90
6102;DHT22;3081;50.584;7.032;2023-08-20T05:50:58;21.50;99.90
6102;DHT22;3081;50.584;7.032;2023-08-20T05:53:25;21.60;99.90
6102;DHT22;3081;50.584;7.032;2023-08-20T05:55:52;21.80;99.90
6102;DHT22;3081;50.584;7.032;2023-08-20T05:58:19;21.90;99.90
6102;DHT22;3081;50.584;7.032;2023-08-20T06:00:45;22.00;99.90
6102;DHT22;3081;50.584;7.032;2023-08-20T06:03:14;22.00;99.90
6102;DHT22;3081;50.584;7.032;2023-08-20T06:05:41;22.20;99.90
6102;DHT22;3081;50.584;7.032;2023-08-20T06:08:07;22.30;99.90
6102;DHT22;3081;50.584;7.032;2023-08-20T06:10:34;22.40;99.90
6102;DHT22;3081;50.584;7.032;2023-08-20T06:13:01;22.40;99.90
6102;DHT22;3081;50.584;7.032;2023-08-20T06:15:28;22.40;99.90
6102;DHT22;3081;50.584;7.032;2023-08-20T06:17:55;22.40;99.90
6102;DHT22;3081;50.584;7.032;2023-08-20T06:20:24;22.40;99.90
6102;DHT22;3081;50.584;7.032;2023-08-20T06:22:51;22.30;99.90
6102;DHT22;3081;50.584;7.032;2023-08-20T06:25:18;22.30;99.90
6102;DHT22;3081;50.584;7.032;2023-08-20T06:27:45;22.30;99.90
6102;DHT22;3081;50.584;7.032;2023-08-20T06:30:12;22.30;99.90
6102;DHT22;3081;50.584;7.032;2023-08-20T06:32:39;22.40;99.90
6102;DHT22;3081;50.584;7.032;2023-08-20T06:35:07;22.50;99.90
6102;DHT22;3081;50.584;7.032;2023-08-20T06:37:38;22.40;99.90
6102;DHT22;3081;50.584;7.032;2023-08-20T06:40:06;22.40;99.90
6102;DHT22;3081;50.584;7.032;2023-08-20T06:42:33;22.40;99.90
6102;DHT22;3081;50.584;7.032;2023-08-20T06:45:00;22.40;99.90
6102;DHT22;3081;50.584;7.032;2023-08-20T06:47:27;22.50;99.90
6102;DHT22;3081;50.584;7.032;2023-08-20T06:49:53;22.60;99.90
6102;DHT22;3081;50.584;7.032;2023-08-20T06:52:20;22.60;99.90
6102;DHT22;3081;50.584;7.032;2023-08-20T06:54:49;22.70;99.90
6102;DHT22;3081;50.584;7.032;2023-08-20T06:57:15;22.70;99.90
6102;DHT22;3081;50.584;7.032;2023-08-20T06:59:42;22.70;99.90
6102;DHT22;3081;50.584;7.032;2023-08-20T07:02:09;22.80;99.90
6102;DHT22;3081;50.584;7.032;2023-08-20T07:04:36;22.70;99.90
6102;DHT22;3081;50.584;7.032;2023-08-20T07:07:03;22.80;99.90
6102;DHT22;3081;50.584;7.032;2023-08-20T07:09:31;22.90;99.90
6102;DHT22;3081;50.584;7.032;2023-08-20T07:11:59;23.00;99.90
6102;DHT22;3081;50.584;7.032;2023-08-20T07:14:26;23.00;99.90
6102;DHT22;3081;50.584;7.032;2023-08-20T07:16:54;23.00;99.90
6102;DHT22;3081;50.584;7.032;2023-08-20T07:19:21;23.00;99.90
6102;DHT22;3081;50.584;7.032;2023-08-20T07:21:48;23.00;99.90
6102;DHT22;3081;50.584;7.032;2023-08-20T07:24:15;23.10;99.90
6102;DHT22;3081;50.584;7.032;2023-08-20T07:26:42;23.20;99.90
6102;DHT22;3081;50.584;7.032;2023-08-20T07:29:10;23.20;99.90
6102;DHT22;3081;50.584;7.032;2023-08-20T07:31:37;23.40;99.90
6102;DHT22;3081;50.584;7.032;2023-08-20T07:34:04;23.40;99.90
6102;DHT22;3081;50.584;7.032;2023-08-20T07:36:31;23.50;99.90
6102;DHT22;3081;50.584;7.032;2023-08-20T07:38:59;23.60;99.90
6102;DHT22;3081;50.584;7.032;2023-08-20T07:41:26;23.70;99.90
6102;DHT22;3081;50.584;7.032;2023-08-20T07:43:53;23.80;99.90
6102;DHT22;3081;50.584;7.032;2023-08-20T07:46:21;24.00;99.90
6102;DHT22;3081;50.584;7.032;2023-08-20T07:48:48;24.00;99.90
6102;DHT22;3081;50.584;7.032;2023-08-20T07:51:15;24.10;99.90
6102;DHT22;3081;50.584;7.032;2023-08-20T07:53:42;24.10;99.90
6102;DHT22;3081;50.584;7.032;2023-08-20T07:56:08;24.10;99.90
6102;DHT22;3081;50.584;7.032;2023-08-20T07:58:35;24.20;99.90
6102;DHT22;3081;50.584;7.032;2023-08-20T08:01:02;24.20;99.90
6102;DHT22;3081;50.584;7.032;2023-08-20T08:03:30;24.20;99.90
6102;DHT22;3081;50.584;7.032;2023-08-20T08:05:57;24.30;99.90
6102;DHT22;3081;50.584;7.032;2023-08-20T08:08:24;24.40;99.90
6102;DHT22;3081;50.584;7.032;2023-08-20T08:10:51;24.50;99.90
6102;DHT22;3081;50.584;7.032;2023-08-20T08:13:21;24.60;99.90
6102;DHT22;3081;50.584;7.032;2023-08-20T08:15:48;24.60;99.90
6102;DHT22;3081;50.584;7.032;2023-08-20T08:18:15;24.60;99.90
6102;DHT22;3081;50.584;7.032;2023-08-20T08:20:43;24.70;99.90
6102;DHT22;3081;50.584;7.032;2023-08-20T08:23:10;24.90;99.90
6102;DHT22;3081;50.584;7.032;2023-08-20T08:25:37;24.90;99.90
6102;DHT22;3081;50.584;7.032;2023-08-20T08:28:05;25.00;99.90
6102;DHT22;3081;50.584;7.032;2023-08-20T08:30:32;25.10;99.90
6102;DHT22;3081;50.584;7.032;2023-08-20T08:32:59;25.10;99.90
6102;DHT22;3081;50.584;7.032;2023-08-20T08:35:26;25.20;99.90
6102;DHT22;3081;50.584;7.032;2023-08-20T08:37:54;25.20;99.90
6102;DHT22;3081;50.584;7.032;2023-08-20T08:40:21;25.30;99.90
6102;DHT22;3081;50.584;7.032;2023-08-20T08:42:49;25.50;99.90
6102;DHT22;3081;50.584;7.032;2023-08-20T08:45:18;25.50;99.90
6102;DHT22;3081;50.584;7.032;2023-08-20T08:47:46;25.70;99.90
6102;DHT22;3081;50.584;7.032;2023-08-20T08:50:14;25.80;99.90
6102;DHT22;3081;50.584;7.032;2023-08-20T08:52:42;25.90;99.90
6102;DHT22;3081;50.584;7.032;2023-08-20T08:55:12;26.10;99.90
6102;DHT22;3081;50.584;7.032;2023-08-20T08:57:39;26.40;99.90
6102;DHT22;3081;50.584;7.032;2023-08-20T09:00:07;26.60;99.90
6102;DHT22;3081;50.584;7.032;2023-08-20T09:02:35;27.00;99.90
6102;DHT22;3081;50.584;7.032;2023-08-20T09:05:02;27.30;99.90
6102;DHT22;3081;50.584;7.032;2023-08-20T09:07:29;27.60;99.90
6102;DHT22;3081;50.584;7.032;2023-08-20T09:09:58;28.10;99.90
6102;DHT22;3081;50.584;7.032;2023-08-20T09:12:27;28.80;99.90
6102;DHT22;3081;50.584;7.032;2023-08-20T09:14:54;29.70;99.90
6102;DHT22;3081;50.584;7.032;2023-08-20T09:17:26;30.70;99.90
6102;DHT22;3081;50.584;7.032;2023-08-20T09:19:54;31.50;99.90
6102;DHT22;3081;50.584;7.032;2023-08-20T09:22:22;32.20;99.90
6102;DHT22;3081;50.584;7.032;2023-08-20T09:24:53;33.00;99.90
6102;DHT22;3081;50.584;7.032;2023-08-20T09:27:21;33.80;99.90
6102;DHT22;3081;50.584;7.032;2023-08-20T09:29:51;34.60;99.90
6102;DHT22;3081;50.584;7.032;2023-08-20T09:32:20;35.30;99.90
6102;DHT22;3081;50.584;7.032;2023-08-20T09:34:48;35.60;99.90
6102;DHT22;3081;50.584;7.032;2023-08-20T09:37:18;35.70;99.90
6102;DHT22;3081;50.584;7.032;2023-08-20T09:39:45;35.00;99.90
6102;DHT22;3081;50.584;7.032;2023-08-20T09:42:12;34.20;99.90
6102;DHT22;3081;50.584;7.032;2023-08-20T09:44:41;34.30;99.90
6102;DHT22;3081;50.584;7.032;2023-08-20T09:47:11;33.90;99.90
6102;DHT22;3081;50.584;7.032;2023-08-20T09:49:39;33.00;99.90
6102;DHT22;3081;50.584;7.032;2023-08-20T09:52:07;32.80;99.90
6102;DHT22;3081;50.584;7.032;2023-08-20T09:54:46;33.70;99.90
6102;DHT22;3081;50.584;7.032;2023-08-20T09:57:23;34.90;99.90
6102;DHT22;3081;50.584;7.032;2023-08-20T09:59:53;36.10;99.90
6102;DHT22;3081;50.584;7.032;2023-08-20T10:02:21;37.00;99.90
6102;DHT22;3081;50.584;7.032;2023-08-20T10:04:49;37.60;99.90
6102;DHT22;3081;50.584;7.032;2023-08-20T10:07:17;37.90;99.90
6102;DHT22;3081;50.584;7.032;2023-08-20T10:09:44;37.80;99.90
6102;DHT22;3081;50.584;7.032;2023-08-20T10:12:13;37.70;99.90
6102;DHT22;3081;50.584;7.032;2023-08-20T10:14:40;38.10;99.90
6102;DHT22;3081;50.584;7.032;2023-08-20T10:17:08;38.40;98.00
6102;DHT22;3081;50.584;7.032;2023-08-20T10:19:37;38.60;97.20
6102;DHT22;3081;50.584;7.032;2023-08-20T10:22:04;38.60;96.10
6102;DHT22;3081;50.584;7.032;2023-08-20T10:24:46;38.50;95.40
6102;DHT22;3081;50.584;7.032;2023-08-20T10:27:24;38.20;93.80
6102;DHT22;3081;50.584;7.032;2023-08-20T10:29:52;37.80;94.60
6102;DHT22;3081;50.584;7.032;2023-08-20T10:32:19;37.60;94.30
6102;DHT22;3081;50.584;7.032;2023-08-20T10:34:51;37.60;94.80
6102;DHT22;3081;50.584;7.032;2023-08-20T10:37:27;37.80;94.70
6102;DHT22;3081;50.584;7.032;2023-08-20T10:39:54;38.20;95.10
6102;DHT22;3081;50.584;7.032;2023-08-20T10:42:27;38.80;94.30
6102;DHT22;3081;50.584;7.032;2023-08-20T10:44:58;39.20;93.50
6102;DHT22;3081;50.584;7.032;2023-08-20T10:47:26;39.40;93.20
6102;DHT22;3081;50.584;7.032;2023-08-20T10:50:03;39.50;92.10
6102;DHT22;3081;50.584;7.032;2023-08-20T10:52:30;39.40;91.10
6102;DHT22;3081;50.584;7.032;2023-08-20T10:54:57;38.30;91.10
6102;DHT22;3081;50.584;7.032;2023-08-20T10:57:33;37.60;92.30
6102;DHT22;3081;50.584;7.032;2023-08-20T11:00:02;37.30;92.30
6102;DHT22;3081;50.584;7.032;2023-08-20T11:02:35;37.00;92.40
6102;DHT22;3081;50.584;7.032;2023-08-20T11:05:09;36.90;93.00
6102;DHT22;3081;50.584;7.032;2023-08-20T11:07:43;37.40;92.70
6102;DHT22;3081;50.584;7.032;2023-08-20T11:10:13;37.80;92.10
6102;DHT22;3081;50.584;7.032;2023-08-20T11:12:40;38.50;91.60
6102;DHT22;3081;50.584;7.032;2023-08-20T11:15:08;39.20;89.90
6102;DHT22;3081;50.584;7.032;2023-08-20T11:17:40;39.60;88.60
6102;DHT22;3081;50.584;7.032;2023-08-20T11:20:09;39.80;87.40
6102;DHT22;3081;50.584;7.032;2023-08-20T11:22:38;39.70;85.80
6102;DHT22;3081;50.584;7.032;2023-08-20T11:25:05;39.60;85.80
6102;DHT22;3081;50.584;7.032;2023-08-20T11:27:33;39.90;84.40
6102;DHT22;3081;50.584;7.032;2023-08-20T11:30:00;40.10;82.90
6102;DHT22;3081;50.584;7.032;2023-08-20T11:32:30;39.90;82.70
6102;DHT22;3081;50.584;7.032;2023-08-20T11:34:57;39.60;83.00
6102;DHT22;3081;50.584;7.032;2023-08-20T11:37:27;39.60;84.00
6102;DHT22;3081;50.584;7.032;2023-08-20T11:39:54;39.70;84.20
6102;DHT22;3081;50.584;7.032;2023-08-20T11:42:21;39.80;83.20
6102;DHT22;3081;50.584;7.032;2023-08-20T11:44:49;40.00;82.60
6102;DHT22;3081;50.584;7.032;2023-08-20T11:47:16;39.90;80.90
6102;DHT22;3081;50.584;7.032;2023-08-20T11:49:43;39.60;80.90
6102;DHT22;3081;50.584;7.032;2023-08-20T11:52:10;38.90;82.30
6102;DHT22;3081;50.584;7.032;2023-08-20T11:54:42;38.40;82.60
6102;DHT22;3081;50.584;7.032;2023-08-20T11:57:09;38.20;83.20
6102;DHT22;3081;50.584;7.032;2023-08-20T11:59:35;38.50;84.60
6102;DHT22;3081;50.584;7.032;2023-08-20T12:02:03;39.20;83.00
6102;DHT22;3081;50.584;7.032;2023-08-20T12:04:31;39.90;81.60
6102;DHT22;3081;50.584;7.032;2023-08-20T12:07:12;40.50;80.60
6102;DHT22;3081;50.584;7.032;2023-08-20T12:09:41;41.10;79.40
6102;DHT22;3081;50.584;7.032;2023-08-20T12:12:08;41.20;78.50
6102;DHT22;3081;50.584;7.032;2023-08-20T12:14:36;41.00;76.50
6102;DHT22;3081;50.584;7.032;2023-08-20T12:17:03;40.50;77.30
6102;DHT22;3081;50.584;7.032;2023-08-20T12:19:30;40.50;78.90
6102;DHT22;3081;50.584;7.032;2023-08-20T12:21:56;40.80;77.90
6102;DHT22;3081;50.584;7.032;2023-08-20T12:24:23;40.90;76.80
6102;DHT22;3081;50.584;7.032;2023-08-20T12:26:53;41.10;78.00
6102;DHT22;3081;50.584;7.032;2023-08-20T12:29:19;41.50;76.90
6102;DHT22;3081;50.584;7.032;2023-08-20T12:31:46;41.80;76.10
6102;DHT22;3081;50.584;7.032;2023-08-20T12:34:13;41.90;75.50
6102;DHT22;3081;50.584;7.032;2023-08-20T12:36:40;42.10;74.90
6102;DHT22;3081;50.584;7.032;2023-08-20T12:39:07;42.20;75.20
6102;DHT22;3081;50.584;7.032;2023-08-20T12:41:35;42.50;74.40
6102;DHT22;3081;50.584;7.032;2023-08-20T12:44:04;42.60;73.50
6102;DHT22;3081;50.584;7.032;2023-08-20T12:46:31;42.70;72.70
6102;DHT22;3081;50.584;7.032;2023-08-20T12:48:58;42.70;71.20
6102;DHT22;3081;50.584;7.032;2023-08-20T12:51:25;42.90;71.20
6102;DHT22;3081;50.584;7.032;2023-08-20T12:53:52;42.90;70.80
6102;DHT22;3081;50.584;7.032;2023-08-20T12:56:19;42.80;71.90
6102;DHT22;3081;50.584;7.032;2023-08-20T12:58:46;42.80;72.10
6102;DHT22;3081;50.584;7.032;2023-08-20T13:01:14;43.10;70.50
6102;DHT22;3081;50.584;7.032;2023-08-20T13:03:43;42.90;70.40
6102;DHT22;3081;50.584;7.032;2023-08-20T13:06:10;42.70;70.20
6102;DHT22;3081;50.584;7.032;2023-08-20T13:08:38;42.60;69.90
6102;DHT22;3081;50.584;7.032;2023-08-20T13:11:05;42.70;70.50
6102;DHT22;3081;50.584;7.032;2023-08-20T13:13:33;42.80;69.30
6102;DHT22;3081;50.584;7.032;2023-08-20T13:16:01;42.90;69.40
6102;DHT22;3081;50.584;7.032;2023-08-20T13:18:30;43.30;70.60
6102;DHT22;3081;50.584;7.032;2023-08-20T13:20:57;44.00;69.10
6102;DHT22;3081;50.584;7.032;2023-08-20T13:23:24;44.70;68.30
6102;DHT22;3081;50.584;7.032;2023-08-20T13:25:51;44.90;67.10
6102;DHT22;3081;50.584;7.032;2023-08-20T13:28:18;45.30;65.70
6102;DHT22;3081;50.584;7.032;2023-08-20T13:30:46;45.30;64.60
6102;DHT22;3081;50.584;7.032;2023-08-20T13:33:13;45.20;64.00
6102;DHT22;3081;50.584;7.032;2023-08-20T13:35:42;44.90;64.20
6102;DHT22;3081;50.584;7.032;2023-08-20T13:38:09;45.00;64.70
6102;DHT22;3081;50.584;7.032;2023-08-20T13:40:35;45.10;64.70
6102;DHT22;3081;50.584;7.032;2023-08-20T13:43:03;44.20;62.80
6102;DHT22;3081;50.584;7.032;2023-08-20T13:45:29;42.70;65.10
6102;DHT22;3081;50.584;7.032;2023-08-20T13:47:56;41.50;66.80
6102;DHT22;3081;50.584;7.032;2023-08-20T13:50:23;40.20;69.30
6102;DHT22;3081;50.584;7.032;2023-08-20T13:52:52;39.20;70.10
6102;DHT22;3081;50.584;7.032;2023-08-20T13:55:19;38.60;72.70
6102;DHT22;3081;50.584;7.032;2023-08-20T13:57:46;38.40;75.80
6102;DHT22;3081;50.584;7.032;2023-08-20T14:00:14;39.20;74.30
6102;DHT22;3081;50.584;7.032;2023-08-20T14:02:41;39.00;73.40
6102;DHT22;3081;50.584;7.032;2023-08-20T14:05:08;39.40;74.40
6102;DHT22;3081;50.584;7.032;2023-08-20T14:07:35;40.00;72.30
6102;DHT22;3081;50.584;7.032;2023-08-20T14:10:05;41.00;69.90
6102;DHT22;3081;50.584;7.032;2023-08-20T14:12:32;40.60;69.30
6102;DHT22;3081;50.584;7.032;2023-08-20T14:14:59;41.20;71.20
6102;DHT22;3081;50.584;7.032;2023-08-20T14:17:27;41.90;68.70
6102;DHT22;3081;50.584;7.032;2023-08-20T14:19:54;43.00;68.30
6102;DHT22;3081;50.584;7.032;2023-08-20T14:22:21;44.60;65.80
6102;DHT22;3081;50.584;7.032;2023-08-20T14:24:48;46.10;64.00
6102;DHT22;3081;50.584;7.032;2023-08-20T14:27:16;47.20;62.50
6102;DHT22;3081;50.584;7.032;2023-08-20T14:29:43;48.20;60.70
6102;DHT22;3081;50.584;7.032;2023-08-20T14:32:10;47.70;59.30
6102;DHT22;3081;50.584;7.032;2023-08-20T14:34:37;47.70;59.70
6102;DHT22;3081;50.584;7.032;2023-08-20T14:37:04;47.90;58.20
6102;DHT22;3081;50.584;7.032;2023-08-20T14:39:31;47.30;59.40
6102;DHT22;3081;50.584;7.032;2023-08-20T14:41:59;47.10;59.00
6102;DHT22;3081;50.584;7.032;2023-08-20T14:44:27;45.90;59.10
6102;DHT22;3081;50.584;7.032;2023-08-20T14:46:54;44.30;61.20
6102;DHT22;3081;50.584;7.032;2023-08-20T14:49:21;44.50;62.50
6102;DHT22;3081;50.584;7.032;2023-08-20T14:51:48;43.90;61.20
6102;DHT22;3081;50.584;7.032;2023-08-20T14:54:15;43.40;63.70
6102;DHT22;3081;50.584;7.032;2023-08-20T14:56:42;44.60;61.90
6102;DHT22;3081;50.584;7.032;2023-08-20T14:59:10;45.90;61.10
6102;DHT22;3081;50.584;7.032;2023-08-20T15:01:38;47.80;59.50
6102;DHT22;3081;50.584;7.032;2023-08-20T15:04:05;48.40;57.50
6102;DHT22;3081;50.584;7.032;2023-08-20T15:06:32;47.10;57.50
6102;DHT22;3081;50.584;7.032;2023-08-20T15:08:59;45.90;58.60
6102;DHT22;3081;50.584;7.032;2023-08-20T15:11:27;45.40;59.40
6102;DHT22;3081;50.584;7.032;2023-08-20T15:13:54;45.70;59.10
6102;DHT22;3081;50.584;7.032;2023-08-20T15:16:21;46.40;58.40
6102;DHT22;3081;50.584;7.032;2023-08-20T15:18:49;46.80;57.90
6102;DHT22;3081;50.584;7.032;2023-08-20T15:21:16;47.10;57.60
6102;DHT22;3081;50.584;7.032;2023-08-20T15:23:43;48.10;56.70
6102;DHT22;3081;50.584;7.032;2023-08-20T15:26:10;49.20;55.80
6102;DHT22;3081;50.584;7.032;2023-08-20T15:28:37;50.00;54.40
6102;DHT22;3081;50.584;7.032;2023-08-20T15:31:05;50.90;54.40
6102;DHT22;3081;50.584;7.032;2023-08-20T15:33:31;51.70;53.40
6102;DHT22;3081;50.584;7.032;2023-08-20T15:36:00;52.30;52.20
6102;DHT22;3081;50.584;7.032;2023-08-20T15:38:27;52.50;51.80
6102;DHT22;3081;50.584;7.032;2023-08-20T15:40:54;52.70;51.20
6102;DHT22;3081;50.584;7.032;2023-08-20T15:43:21;53.20;49.30
6102;DHT22;3081;50.584;7.032;2023-08-20T15:45:48;53.00;49.50
6102;DHT22;3081;50.584;7.032;2023-08-20T15:48:15;52.40;49.30
6102;DHT22;3081;50.584;7.032;2023-08-20T15:50:42;51.80;50.20
6102;DHT22;3081;50.584;7.032;2023-08-20T15:53:11;52.00;50.20
6102;DHT22;3081;50.584;7.032;2023-08-20T15:55:37;52.10;49.60
6102;DHT22;3081;50.584;7.032;2023-08-20T15:58:04;52.30;49.70
6102;DHT22;3081;50.584;7.032;2023-08-20T16:00:31;52.50;49.40
6102;DHT22;3081;50.584;7.032;2023-08-20T16:03:01;52.70;48.60
6102;DHT22;3081;50.584;7.032;2023-08-20T16:05:27;53.10;48.20